sensor_id;sensor_type;location;lat;lon;timestamp;pressure;altitude;pressure_sealevel;temperature;humidity
71938;BME280;59810;48.800;9.086;2023-05-23T00:01:21;97468.50;;;17.28;86.87
71938;BME280;59810;48.800;9.086;2023-05-23T00:03:47;97473.78;;;17.19;87.63
71938;BME280;59810;48.800;9.086;2023-05-23T00:06:13;97471.88;;;17.20;87.54
71938;BME280;59810;48.800;9.086;2023-05-23T00:08:38;97472.97;;;17.19;88.06
71938;BME280;59810;48.800;9.086;2023-05-23T00:11:06;97471.06;;;17.19;88.25
71938;BME280;59810;48.800;9.086;2023-05-23T00:13:31;97468.03;;;17.21;88.43
71938;BME280;59810;48.800;9.086;2023-05-23T00:15:59;97472.38;;;17.22;88.27
71938;BME280;59810;48.800;9.086;2023-05-23T00:18:24;97472.63;;;17.25;88.10
71938;BME280;59810;48.800;9.086;2023-05-23T00:20:49;97470.19;;;17.24;88.37
71938;BME280;59810;48.800;9.086;2023-05-23T00:23:16;97476.47;;;17.24;88.56
71938;BME280;59810;48.800;9.086;2023-05-23T00:25:45;97473.19;;;17.22;88.58
71938;BME280;59810;48.800;9.086;2023-05-23T00:28:16;97472.63;;;17.25;88.58
71938;BME280;59810;48.800;9.086;2023-05-23T00:30:42;97467.47;;;17.24;88.72
71938;BME280;59810;48.800;9.086;2023-05-23T00:33:07;97471.53;;;17.26;88.69
71938;BME280;59810;48.800;9.086;2023-05-23T00:35:33;97465.56;;;17.24;89.00
71938;BME280;59810;48.800;9.086;2023-05-23T00:37:58;97472.53;;;17.30;88.59
71938;BME280;59810;48.800;9.086;2023-05-23T00:40:23;97468.72;;;17.31;88.61
71938;BME280;59810;48.800;9.086;2023-05-23T00:42:49;97472.84;;;17.29;88.67
71938;BME280;59810;48.800;9.086;2023-05-23T00:45:16;97467.38;;;17.29;88.58
71938;BME280;59810;48.800;9.086;2023-05-23T00:47:43;97487.59;;;17.28;88.69
71938;BME280;59810;48.800;9.086;2023-05-23T00:50:11;97484.88;;;17.28;88.69
71938;BME280;59810;48.800;9.086;2023-05-23T00:52:39;97492.84;;;17.24;88.87
71938;BME280;59810;48.800;9.086;2023-05-23T00:55:05;97488.25;;;17.20;89.16
71938;BME280;59810;48.800;9.086;2023-05-23T00:57:32;97495.41;;;17.16;89.59
71938;BME280;59810;48.800;9.086;2023-05-23T00:59:59;97498.13;;;17.16;89.49
71938;BME280;59810;48.800;9.086;2023-05-23T01:02:25;97498.00;;;17.07;90.16
71938;BME280;59810;48.800;9.086;2023-05-23T01:04:52;97504.47;;;17.11;89.96
71938;BME280;59810;48.800;9.086;2023-05-23T01:07:19;97494.66;;;17.10;89.95
71938;BME280;59810;48.800;9.086;2023-05-23T01:09:45;97490.31;;;17.09;89.81
71938;BME280;59810;48.800;9.086;2023-05-23T01:14:46;97489.28;;;17.05;89.84
71938;BME280;59810;48.800;9.086;2023-05-23T01:17:21;97495.03;;;17.03;90.04
71938;BME280;59810;48.800;9.086;2023-05-23T01:20:01;97498.38;;;17.00;90.11
71938;BME280;59810;48.800;9.086;2023-05-23T01:22:37;97491.59;;;16.98;90.61
71938;BME280;59810;48.800;9.086;2023-05-23T01:28:14;97500.06;;;16.96;90.53
71938;BME280;59810;48.800;9.086;2023-05-23T01:30:43;97499.03;;;16.92;90.63
71938;BME280;59810;48.800;9.086;2023-05-23T01:33:09;97504.53;;;16.87;91.23
71938;BME280;59810;48.800;9.086;2023-05-23T01:35:36;97491.56;;;16.79;91.62
71938;BME280;59810;48.800;9.086;2023-05-23T01:38:01;97493.19;;;16.80;91.22
71938;BME280;59810;48.800;9.086;2023-05-23T01:40:28;97495.59;;;16.82;91.41
71938;BME280;59810;48.800;9.086;2023-05-23T01:42:55;97499.16;;;16.82;91.64
71938;BME280;59810;48.800;9.086;2023-05-23T01:45:24;97501.88;;;16.82;91.08
71938;BME280;59810;48.800;9.086;2023-05-23T01:47:53;97499.97;;;16.83;91.12
71938;BME280;59810;48.800;9.086;2023-05-23T01:50:21;97505.13;;;16.84;91.27
71938;BME280;59810;48.800;9.086;2023-05-23T01:52:47;97513.28;;;16.84;90.69
71938;BME280;59810;48.800;9.086;2023-05-23T01:55:16;97503.56;;;16.78;91.46
71938;BME280;59810;48.800;9.086;2023-05-23T01:57:43;97502.25;;;16.75;91.57
71938;BME280;59810;48.800;9.086;2023-05-23T02:00:12;97505.25;;;16.74;91.21
71938;BME280;59810;48.800;9.086;2023-05-23T02:02:41;97503.63;;;16.73;91.64
71938;BME280;59810;48.800;9.086;2023-05-23T02:05:08;97498.47;;;16.71;91.72
71938;BME280;59810;48.800;9.086;2023-05-23T02:07:34;97501.44;;;16.75;91.36
71938;BME280;59810;48.800;9.086;2023-05-23T02:10:02;97502.25;;;16.75;90.96
71938;BME280;59810;48.800;9.086;2023-05-23T02:12:31;97494.94;;;16.71;91.62
71938;BME280;59810;48.800;9.086;2023-05-23T02:14:56;97493.91;;;16.67;91.67
71938;BME280;59810;48.800;9.086;2023-05-23T02:17:21;97498.28;;;16.63;91.91
71938;BME280;59810;48.800;9.086;2023-05-23T02:19:48;97499.13;;;16.58;92.31
71938;BME280;59810;48.800;9.086;2023-05-23T02:22:13;97500.03;;;16.54;92.43
71938;BME280;59810;48.800;9.086;2023-05-23T02:24:41;97504.38;;;16.55;92.77
71938;BME280;59810;48.800;9.086;2023-05-23T02:27:06;97492.34;;;16.56;92.61
71938;BME280;59810;48.800;9.086;2023-05-23T02:29:32;97495.09;;;16.56;92.53
71938;BME280;59810;48.800;9.086;2023-05-23T02:31:57;97500.78;;;16.59;92.51
71938;BME280;59810;48.800;9.086;2023-05-23T02:34:23;97504.38;;;16.55;92.56
71938;BME280;59810;48.800;9.086;2023-05-23T02:36:48;97507.63;;;16.57;92.61
71938;BME280;59810;48.800;9.086;2023-05-23T02:39:13;97505.19;;;16.55;92.32
71938;BME280;59810;48.800;9.086;2023-05-23T02:41:39;97508.97;;;16.59;92.15
71938;BME280;59810;48.800;9.086;2023-05-23T02:44:07;97505.16;;;16.60;91.75
71938;BME280;59810;48.800;9.086;2023-05-23T02:46:32;97516.34;;;16.59;91.95
71938;BME280;59810;48.800;9.086;2023-05-23T02:48:57;97507.56;;;16.62;91.63
71938;BME280;59810;48.800;9.086;2023-05-23T02:51:22;97514.13;;;16.61;91.85
71938;BME280;59810;48.800;9.086;2023-05-23T02:53:48;97518.19;;;16.63;91.77
71938;BME280;59810;48.800;9.086;2023-05-23T02:56:13;97514.66;;;16.63;91.60
71938;BME280;59810;48.800;9.086;2023-05-23T02:58:39;97520.09;;;16.63;91.39
71938;BME280;59810;48.800;9.086;2023-05-23T03:01:05;97515.22;;;16.60;91.65
71938;BME280;59810;48.800;9.086;2023-05-23T03:03:32;97522.63;;;16.54;92.18
71938;BME280;59810;48.800;9.086;2023-05-23T03:05:57;97521.00;;;16.53;92.17
71938;BME280;59810;48.800;9.086;2023-05-23T03:08:23;97526.75;;;16.52;92.26
71938;BME280;59810;48.800;9.086;2023-05-23T03:10:48;97523.97;;;16.57;91.64
71938;BME280;59810;48.800;9.086;2023-05-23T03:13:14;97522.63;;;16.54;92.00
71938;BME280;59810;48.800;9.086;2023-05-23T03:15:40;97524.84;;;16.52;92.29
71938;BME280;59810;48.800;9.086;2023-05-23T03:18:08;97525.59;;;16.58;91.43
71938;BME280;59810;48.800;9.086;2023-05-23T03:20:33;97526.69;;;16.57;91.34
71938;BME280;59810;48.800;9.086;2023-05-23T03:22:58;97527.78;;;16.56;91.41
71938;BME280;59810;48.800;9.086;2023-05-23T03:25:24;97530.59;;;16.50;91.91
71938;BME280;59810;48.800;9.086;2023-05-23T03:27:50;97535.44;;;16.54;91.22
71938;BME280;59810;48.800;9.086;2023-05-23T03:30:15;97525.44;;;16.49;91.77
71938;BME280;59810;48.800;9.086;2023-05-23T03:32:40;97535.81;;;16.47;91.68
71938;BME280;59810;48.800;9.086;2023-05-23T03:35:06;97542.13;;;16.42;92.01
71938;BME280;59810;48.800;9.086;2023-05-23T03:37:32;97537.72;;;16.46;92.00
71938;BME280;59810;48.800;9.086;2023-05-23T03:39:57;97541.59;;;16.40;92.32
71938;BME280;59810;48.800;9.086;2023-05-23T03:42:27;97543.81;;;16.38;92.65
71938;BME280;59810;48.800;9.086;2023-05-23T03:44:52;97549.78;;;16.40;92.32
71938;BME280;59810;48.800;9.086;2023-05-23T03:47:17;97549.56;;;16.37;92.65
71938;BME280;59810;48.800;9.086;2023-05-23T03:49:45;97539.47;;;16.37;92.58
71938;BME280;59810;48.800;9.086;2023-05-23T03:52:10;97535.06;;;16.41;92.42
71938;BME280;59810;48.800;9.086;2023-05-23T03:54:36;97541.59;;;16.40;92.58
71938;BME280;59810;48.800;9.086;2023-05-23T03:57:02;97545.97;;;16.41;92.47
71938;BME280;59810;48.800;9.086;2023-05-23T03:59:27;97539.47;;;16.37;92.90
71938;BME280;59810;48.800;9.086;2023-05-23T04:01:53;97549.78;;;16.40;92.41
71938;BME280;59810;48.800;9.086;2023-05-23T04:04:19;97546.03;;;16.36;93.20
71938;BME280;59810;48.800;9.086;2023-05-23T04:06:47;97539.00;;;16.30;93.54
71938;BME280;59810;48.800;9.086;2023-05-23T04:09:12;97553.97;;;16.33;93.39
71938;BME280;59810;48.800;9.086;2023-05-23T04:11:38;97546.06;;;16.31;93.05
71938;BME280;59810;48.800;9.086;2023-05-23T04:14:06;97537.41;;;16.24;94.00
71938;BME280;59810;48.800;9.086;2023-05-23T04:16:35;97546.66;;;16.28;93.29
71938;BME280;59810;48.800;9.086;2023-05-23T04:19:01;97547.22;;;16.25;94.02
71938;BME280;59810;48.800;9.086;2023-05-23T04:21:28;97547.78;;;16.22;94.18
71938;BME280;59810;48.800;9.086;2023-05-23T04:23:53;97548.59;;;16.23;93.57
71938;BME280;59810;48.800;9.086;2023-05-23T04:26:20;97554.84;;;16.23;93.63
71938;BME280;59810;48.800;9.086;2023-05-23T04:28:48;97559.78;;;16.21;93.96
71938;BME280;59810;48.800;9.086;2023-05-23T04:31:14;97552.44;;;16.22;93.94
71938;BME280;59810;48.800;9.086;2023-05-23T04:33:39;97559.25;;;16.19;93.81
71938;BME280;59810;48.800;9.086;2023-05-23T04:36:05;97562.22;;;16.23;93.48
71938;BME280;59810;48.800;9.086;2023-05-23T04:38:35;97556.25;;;16.21;93.71
71938;BME280;59810;48.800;9.086;2023-05-23T04:41:03;97557.34;;;16.19;93.20
71938;BME280;59810;48.800;9.086;2023-05-23T04:43:30;97558.16;;;16.20;93.40
71938;BME280;59810;48.800;9.086;2023-05-23T04:46:00;97567.72;;;16.17;93.67
71938;BME280;59810;48.800;9.086;2023-05-23T04:48:26;97566.69;;;16.13;94.08
71938;BME280;59810;48.800;9.086;2023-05-23T04:50:52;97580.06;;;16.10;94.61
71938;BME280;59810;48.800;9.086;2023-05-23T04:53:20;97580.34;;;16.08;94.91
71938;BME280;59810;48.800;9.086;2023-05-23T04:55:45;97584.41;;;16.11;94.46
71938;BME280;59810;48.800;9.086;2023-05-23T04:58:11;97582.25;;;16.08;95.15
71938;BME280;59810;48.800;9.086;2023-05-23T05:00:37;97582.22;;;16.13;93.99
71938;BME280;59810;48.800;9.086;2023-05-23T05:03:02;97581.69;;;16.11;94.12
71938;BME280;59810;48.800;9.086;2023-05-23T05:05:30;97588.47;;;16.13;93.92
71938;BME280;59810;48.800;9.086;2023-05-23T05:07:57;97592.56;;;16.11;94.05
71938;BME280;59810;48.800;9.086;2023-05-23T05:10:23;97588.19;;;16.15;93.87
71938;BME280;59810;48.800;9.086;2023-05-23T05:12:48;97591.19;;;16.13;94.06
71938;BME280;59810;48.800;9.086;2023-05-23T05:15:17;97583.34;;;16.07;94.49
71938;BME280;59810;48.800;9.086;2023-05-23T05:17:43;97594.50;;;16.10;94.21
71938;BME280;59810;48.800;9.086;2023-05-23T05:20:09;97587.41;;;16.09;94.62
71938;BME280;59810;48.800;9.086;2023-05-23T05:22:38;97589.03;;;16.10;94.49
71938;BME280;59810;48.800;9.086;2023-05-23T05:25:08;97593.38;;;16.11;94.27
71938;BME280;59810;48.800;9.086;2023-05-23T05:27:36;97600.22;;;16.09;94.53
71938;BME280;59810;48.800;9.086;2023-05-23T05:30:05;97606.47;;;16.09;94.38
71938;BME280;59810;48.800;9.086;2023-05-23T05:32:34;97604.81;;;16.13;93.49
71938;BME280;59810;48.800;9.086;2023-05-23T05:35:00;97601.03;;;16.09;94.34
71938;BME280;59810;48.800;9.086;2023-05-23T05:37:29;97594.50;;;16.10;94.05
71938;BME280;59810;48.800;9.086;2023-05-23T05:39:55;97595.53;;;16.14;93.86
71938;BME280;59810;48.800;9.086;2023-05-23T05:42:30;97601.75;;;16.20;93.47
71938;BME280;59810;48.800;9.086;2023-05-23T05:44:55;97593.50;;;16.30;92.34
71938;BME280;59810;48.800;9.086;2023-05-23T05:47:20;97594.59;;;16.29;92.41
71938;BME280;59810;48.800;9.086;2023-05-23T05:49:46;97603.25;;;16.36;91.32
71938;BME280;59810;48.800;9.086;2023-05-23T05:52:11;97603.47;;;16.40;91.26
71938;BME280;59810;48.800;9.086;2023-05-23T05:54:39;97598.25;;;16.43;91.18
71938;BME280;59810;48.800;9.086;2023-05-23T05:57:06;97607.53;;;16.42;91.30
71938;BME280;59810;48.800;9.086;2023-05-23T05:59:32;97610.84;;;16.39;91.55
71938;BME280;59810;48.800;9.086;2023-05-23T06:01:59;97604.88;;;16.37;91.48
71938;BME280;59810;48.800;9.086;2023-05-23T06:04:25;97613.09;;;16.32;91.56
71938;BME280;59810;48.800;9.086;2023-05-23T06:06:50;97607.13;;;16.30;91.83
71938;BME280;59810;48.800;9.086;2023-05-23T06:09:16;97610.91;;;16.34;92.50
71938;BME280;59810;48.800;9.086;2023-05-23T06:11:41;97610.09;;;16.34;91.69
71938;BME280;59810;48.800;9.086;2023-05-23T06:14:09;97604.28;;;16.40;90.91
71938;BME280;59810;48.800;9.086;2023-05-23T06:16:34;97608.34;;;16.43;89.65
71938;BME280;59810;48.800;9.086;2023-05-23T06:19:00;97612.41;;;16.45;89.51
71938;BME280;59810;48.800;9.086;2023-05-23T06:21:27;97614.09;;;16.41;89.85
71938;BME280;59810;48.800;9.086;2023-05-23T06:23:55;97610.25;;;16.42;89.57
71938;BME280;59810;48.800;9.086;2023-05-23T06:26:20;97614.31;;;16.45;88.86
71938;BME280;59810;48.800;9.086;2023-05-23T06:28:45;97619.25;;;16.43;88.44
71938;BME280;59810;48.800;9.086;2023-05-23T06:31:11;97614.66;;;16.38;89.30
71938;BME280;59810;48.800;9.086;2023-05-23T06:33:38;97624.47;;;16.39;88.54
71938;BME280;59810;48.800;9.086;2023-05-23T06:36:04;97629.72;;;16.31;89.02
71938;BME280;59810;48.800;9.086;2023-05-23T06:38:30;97629.22;;;16.29;89.30
71938;BME280;59810;48.800;9.086;2023-05-23T06:40:59;97634.94;;;16.27;89.59
71938;BME280;59810;48.800;9.086;2023-05-23T06:43:25;97650.50;;;16.22;90.59
71938;BME280;59810;48.800;9.086;2023-05-23T06:45:51;97648.59;;;16.22;89.82
71938;BME280;59810;48.800;9.086;2023-05-23T06:48:19;97648.34;;;16.18;90.22
71938;BME280;59810;48.800;9.086;2023-05-23T06:50:44;97655.19;;;16.16;90.02
71938;BME280;59810;48.800;9.086;2023-05-23T06:53:10;97661.72;;;16.15;88.84
71938;BME280;59810;48.800;9.086;2023-05-23T06:55:35;97662.34;;;16.07;89.54
71938;BME280;59810;48.800;9.086;2023-05-23T06:58:01;97662.38;;;16.02;89.61
71938;BME280;59810;48.800;9.086;2023-05-23T07:00:29;97664.00;;;16.03;89.42
71938;BME280;59810;48.800;9.086;2023-05-23T07:02:55;97666.22;;;16.01;89.63
71938;BME280;59810;48.800;9.086;2023-05-23T07:05:21;97670.59;;;15.97;90.36
71938;BME280;59810;48.800;9.086;2023-05-23T07:07:46;97677.44;;;15.94;90.29
71938;BME280;59810;48.800;9.086;2023-05-23T07:10:11;97670.59;;;15.97;90.36
71938;BME280;59810;48.800;9.086;2023-05-23T07:12:37;97682.88;;;15.94;90.55
71938;BME280;59810;48.800;9.086;2023-05-23T07:15:02;97687.50;;;15.94;87.13
71938;BME280;59810;48.800;9.086;2023-05-23T07:17:31;97679.34;;;15.88;87.07
71938;BME280;59810;48.800;9.086;2023-05-23T07:19:56;97690.78;;;15.91;88.56
71938;BME280;59810;48.800;9.086;2023-05-23T07:22:22;97701.94;;;15.89;89.06
71938;BME280;59810;48.800;9.086;2023-05-23T07:24:50;97699.81;;;15.81;89.54
71938;BME280;59810;48.800;9.086;2023-05-23T07:27:15;97692.00;;;15.69;89.71
71938;BME280;59810;48.800;9.086;2023-05-23T07:29:40;97690.13;;;15.65;90.24
71938;BME280;59810;48.800;9.086;2023-05-23T07:32:06;97685.78;;;15.64;90.05
71938;BME280;59810;48.800;9.086;2023-05-23T07:34:31;97692.31;;;15.52;90.59
71938;BME280;59810;48.800;9.086;2023-05-23T07:36:56;97692.09;;;15.44;89.85
71938;BME280;59810;48.800;9.086;2023-05-23T07:39:22;97696.72;;;15.43;88.68
71938;BME280;59810;48.800;9.086;2023-05-23T07:41:48;97691.81;;;15.45;87.91
71938;BME280;59810;48.800;9.086;2023-05-23T07:44:14;97696.16;;;15.51;86.18
71938;BME280;59810;48.800;9.086;2023-05-23T07:46:40;97696.19;;;15.41;86.51
71938;BME280;59810;48.800;9.086;2023-05-23T07:49:05;97683.38;;;15.47;86.37
71938;BME280;59810;48.800;9.086;2023-05-23T07:51:31;97693.66;;;15.55;86.34
71938;BME280;59810;48.800;9.086;2023-05-23T07:53:56;97699.41;;;15.64;86.52
71938;BME280;59810;48.800;9.086;2023-05-23T07:56:22;97694.25;;;15.62;86.69
71938;BME280;59810;48.800;9.086;2023-05-23T07:58:47;97699.09;;;15.70;85.19
71938;BME280;59810;48.800;9.086;2023-05-23T08:01:12;97700.97;;;15.75;84.07
71938;BME280;59810;48.800;9.086;2023-05-23T08:03:38;97710.50;;;15.72;83.65
71938;BME280;59810;48.800;9.086;2023-05-23T08:06:03;97716.47;;;15.74;82.93
71938;BME280;59810;48.800;9.086;2023-05-23T08:08:29;97725.25;;;15.66;83.62
71938;BME280;59810;48.800;9.086;2023-05-23T08:10:54;97722.81;;;15.65;82.51
71938;BME280;59810;48.800;9.086;2023-05-23T08:13:20;97722.22;;;15.57;82.85
71938;BME280;59810;48.800;9.086;2023-05-23T08:15:45;97716.53;;;15.54;83.43
71938;BME280;59810;48.800;9.086;2023-05-23T08:18:10;97726.06;;;15.51;82.55
71938;BME280;59810;48.800;9.086;2023-05-23T08:20:36;97723.91;;;15.48;83.11
71938;BME280;59810;48.800;9.086;2023-05-23T08:23:02;97728.25;;;15.49;82.83
71938;BME280;59810;48.800;9.086;2023-05-23T08:25:27;97728.25;;;15.49;83.18
71938;BME280;59810;48.800;9.086;2023-05-23T08:27:58;97726.41;;;15.40;81.67
71938;BME280;59810;48.800;9.086;2023-05-23T08:30:24;97728.84;;;15.41;80.48
71938;BME280;59810;48.800;9.086;2023-05-23T08:32:53;97733.22;;;15.37;80.78
71938;BME280;59810;48.800;9.086;2023-05-23T08:35:22;97734.06;;;15.33;80.85
71938;BME280;59810;48.800;9.086;2023-05-23T08:37:49;97744.38;;;15.36;80.57
71938;BME280;59810;48.800;9.086;2023-05-23T08:40:20;97730.22;;;15.39;80.36
71938;BME280;59810;48.800;9.086;2023-05-23T08:42:49;97744.91;;;15.43;80.64
71938;BME280;59810;48.800;9.086;2023-05-23T08:45:15;97740.53;;;15.47;80.29
71938;BME280;59810;48.800;9.086;2023-05-23T08:47:43;97739.69;;;15.51;80.44
71938;BME280;59810;48.800;9.086;2023-05-23T08:50:15;97751.91;;;15.54;80.72
71938;BME280;59810;48.800;9.086;2023-05-23T08:52:55;97751.09;;;15.59;80.96
71938;BME280;59810;48.800;9.086;2023-05-23T08:55:27;97753.25;;;15.56;81.36
71938;BME280;59810;48.800;9.086;2023-05-23T08:57:57;97753.00;;;15.53;81.86
71938;BME280;59810;48.800;9.086;2023-05-23T09:00:25;97757.91;;;15.51;81.49
71938;BME280;59810;48.800;9.086;2023-05-23T09:02:51;97768.81;;;15.46;82.06
71938;BME280;59810;48.800;9.086;2023-05-23T09:05:17;97760.13;;;15.44;82.13
71938;BME280;59810;48.800;9.086;2023-05-23T09:07:45;97755.81;;;15.38;82.71
71938;BME280;59810;48.800;9.086;2023-05-23T09:10:15;97764.19;;;15.46;81.61
71938;BME280;59810;48.800;9.086;2023-05-23T09:12:47;97763.38;;;15.46;80.72
71938;BME280;59810;48.800;9.086;2023-05-23T09:15:13;97765.56;;;15.49;81.33
71938;BME280;59810;48.800;9.086;2023-05-23T09:17:39;97773.72;;;15.44;81.38
71938;BME280;59810;48.800;9.086;2023-05-23T09:20:13;97769.91;;;15.45;80.99
71938;BME280;59810;48.800;9.086;2023-05-23T09:22:39;97775.88;;;15.52;80.90
71938;BME280;59810;48.800;9.086;2023-05-23T09:25:05;97769.59;;;15.56;83.67
71938;BME280;59810;48.800;9.086;2023-05-23T09:27:33;97776.97;;;15.61;77.90
71938;BME280;59810;48.800;9.086;2023-05-23T09:30:08;97779.44;;;15.63;77.41
71938;BME280;59810;48.800;9.086;2023-05-23T09:32:34;97779.97;;;15.65;76.41
71938;BME280;59810;48.800;9.086;2023-05-23T09:35:01;97773.94;;;15.73;76.40
71938;BME280;59810;48.800;9.086;2023-05-23T09:37:35;97776.59;;;15.83;75.50
71938;BME280;59810;48.800;9.086;2023-05-23T09:40:06;97777.34;;;15.99;74.06
71938;BME280;59810;48.800;9.086;2023-05-23T09:42:34;97778.91;;;16.10;72.80
71938;BME280;59810;48.800;9.086;2023-05-23T09:45:00;97777.81;;;16.11;72.77
71938;BME280;59810;48.800;9.086;2023-05-23T09:47:25;97772.34;;;16.11;72.86
71938;BME280;59810;48.800;9.086;2023-05-23T09:49:51;97781.59;;;16.15;73.38
71938;BME280;59810;48.800;9.086;2023-05-23T09:52:17;97772.84;;;16.18;73.56
71938;BME280;59810;48.800;9.086;2023-05-23T09:54:45;97775.25;;;16.25;73.33
71938;BME280;59810;48.800;9.086;2023-05-23T09:57:14;97774.16;;;16.26;73.16
71938;BME280;59810;48.800;9.086;2023-05-23T09:59:44;97773.31;;;16.30;72.50
71938;BME280;59810;48.800;9.086;2023-05-23T10:02:11;97778.38;;;16.47;70.56
71938;BME280;59810;48.800;9.086;2023-05-23T10:04:40;97777.75;;;16.55;70.51
71938;BME280;59810;48.800;9.086;2023-05-23T10:07:12;97770.91;;;16.63;69.37
71938;BME280;59810;48.800;9.086;2023-05-23T10:09:46;97777.25;;;16.87;67.91
71938;BME280;59810;48.800;9.086;2023-05-23T10:12:38;97769.97;;;17.06;66.50
71938;BME280;59810;48.800;9.086;2023-05-23T10:15:08;97768.16;;;17.26;66.57
71938;BME280;59810;48.800;9.086;2023-05-23T10:17:58;97772.25;;;17.47;65.62
71938;BME280;59810;48.800;9.086;2023-05-23T10:20:29;97777.44;;;17.72;66.48
71938;BME280;59810;48.800;9.086;2023-05-23T10:22:58;97772.44;;;17.80;65.99
71938;BME280;59810;48.800;9.086;2023-05-23T10:25:23;97772.06;;;17.86;66.92
71938;BME280;59810;48.800;9.086;2023-05-23T10:27:49;97781.97;;;17.82;66.87
71938;BME280;59810;48.800;9.086;2023-05-23T10:30:15;97781.97;;;17.82;66.23
71938;BME280;59810;48.800;9.086;2023-05-23T10:32:41;97780.94;;;17.78;66.92
71938;BME280;59810;48.800;9.086;2023-05-23T10:40:49;97776.97;;;17.65;67.47
71938;BME280;59810;48.800;9.086;2023-05-23T10:43:24;97785.31;;;17.50;66.91
71938;BME280;59810;48.800;9.086;2023-05-23T10:45:51;97781.25;;;17.48;67.01
71938;BME280;59810;48.800;9.086;2023-05-23T10:48:22;97781.56;;;17.46;67.15
71938;BME280;59810;48.800;9.086;2023-05-23T10:51:10;97786.06;;;17.56;66.24
71938;BME280;59810;48.800;9.086;2023-05-23T10:56:10;97780.69;;;17.75;63.63
71938;BME280;59810;48.800;9.086;2023-05-23T10:58:43;97788.81;;;17.80;64.43
71938;BME280;59810;48.800;9.086;2023-05-23T11:01:08;97784.41;;;17.84;63.14
71938;BME280;59810;48.800;9.086;2023-05-23T11:06:40;97784.00;;;17.95;63.19
71938;BME280;59810;48.800;9.086;2023-05-23T11:11:54;97788.28;;;18.01;59.41
71938;BME280;59810;48.800;9.086;2023-05-23T11:20:04;97790.75;;;18.22;60.94
71938;BME280;59810;48.800;9.086;2023-05-23T11:22:34;97792.72;;;18.16;62.39
71938;BME280;59810;48.800;9.086;2023-05-23T11:25:01;97808.38;;;18.11;63.57
71938;BME280;59810;48.800;9.086;2023-05-23T11:30:16;97807.06;;;17.84;64.78
71938;BME280;59810;48.800;9.086;2023-05-23T11:32:48;97802.13;;;17.86;64.52
71938;BME280;59810;48.800;9.086;2023-05-23T11:35:15;97796.50;;;17.78;65.19
71938;BME280;59810;48.800;9.086;2023-05-23T11:37:40;97795.97;;;17.76;64.85
71938;BME280;59810;48.800;9.086;2023-05-23T11:42:55;97796.06;;;17.70;64.69
71938;BME280;59810;48.800;9.086;2023-05-23T11:45:22;97796.50;;;17.78;63.84
71938;BME280;59810;48.800;9.086;2023-05-23T11:47:50;97789.19;;;17.73;64.13
71938;BME280;59810;48.800;9.086;2023-05-23T11:50:18;97795.22;;;17.94;62.99
71938;BME280;59810;48.800;9.086;2023-05-23T11:52:47;97790.78;;;17.98;63.13
71938;BME280;59810;48.800;9.086;2023-05-23T11:55:17;97795.75;;;17.96;63.13
71938;BME280;59810;48.800;9.086;2023-05-23T11:57:42;97797.13;;;17.93;62.03
71938;BME280;59810;48.800;9.086;2023-05-23T12:00:09;97799.16;;;17.83;62.92
71938;BME280;59810;48.800;9.086;2023-05-23T12:02:41;97795.09;;;17.80;64.02
71938;BME280;59810;48.800;9.086;2023-05-23T12:05:12;97791.19;;;17.67;63.44
71938;BME280;59810;48.800;9.086;2023-05-23T12:07:44;97796.38;;;17.88;62.08
71938;BME280;59810;48.800;9.086;2023-05-23T12:10:12;97789.69;;;18.37;61.76
71938;BME280;59810;48.800;9.086;2023-05-23T12:12:40;97781.56;;;19.02;58.67
71938;BME280;59810;48.800;9.086;2023-05-23T12:15:10;97780.16;;;19.18;58.87
71938;BME280;59810;48.800;9.086;2023-05-23T12:17:45;97773.28;;;19.48;57.64
71938;BME280;59810;48.800;9.086;2023-05-23T12:20:11;97765.31;;;19.65;56.59
71938;BME280;59810;48.800;9.086;2023-05-23T12:22:37;97770.25;;;19.36;56.69
71938;BME280;59810;48.800;9.086;2023-05-23T12:25:02;97765.19;;;19.29;57.69
71938;BME280;59810;48.800;9.086;2023-05-23T12:27:33;97764.13;;;18.98;59.12
71938;BME280;59810;48.800;9.086;2023-05-23T12:32:44;97769.47;;;18.89;58.47
71938;BME280;59810;48.800;9.086;2023-05-23T12:35:12;97773.84;;;18.90;59.95
71938;BME280;59810;48.800;9.086;2023-05-23T12:37:41;97759.03;;;18.91;58.79
71938;BME280;59810;48.800;9.086;2023-05-23T12:40:17;97764.66;;;18.81;58.78
71938;BME280;59810;48.800;9.086;2023-05-23T12:42:53;97769.94;;;18.77;58.44
71938;BME280;59810;48.800;9.086;2023-05-23T12:45:20;97758.09;;;19.28;56.95
71938;BME280;59810;48.800;9.086;2023-05-23T12:47:48;97752.59;;;19.97;55.59
71938;BME280;59810;48.800;9.086;2023-05-23T12:50:14;97755.31;;;20.46;53.66
71938;BME280;59810;48.800;9.086;2023-05-23T12:52:42;97762.69;;;20.82;52.84
71938;BME280;59810;48.800;9.086;2023-05-23T12:55:08;97756.19;;;21.09;52.92
71938;BME280;59810;48.800;9.086;2023-05-23T12:57:34;97745.72;;;21.11;52.97
71938;BME280;59810;48.800;9.086;2023-05-23T12:59:59;97749.88;;;21.31;51.36
71938;BME280;59810;48.800;9.086;2023-05-23T13:02:26;97748.22;;;21.21;52.67
71938;BME280;59810;48.800;9.086;2023-05-23T13:04:53;97746.28;;;20.68;52.67
71938;BME280;59810;48.800;9.086;2023-05-23T13:07:18;97749.00;;;20.46;53.83
71938;BME280;59810;48.800;9.086;2023-05-23T13:09:43;97749.28;;;21.11;52.40
71938;BME280;59810;48.800;9.086;2023-05-23T13:12:09;97746.34;;;21.30;51.93
71938;BME280;59810;48.800;9.086;2023-05-23T13:14:36;97745.50;;;20.99;51.83
71938;BME280;59810;48.800;9.086;2023-05-23T13:17:02;97748.72;;;21.01;51.71
71938;BME280;59810;48.800;9.086;2023-05-23T13:19:29;97745.41;;;21.12;52.21
71938;BME280;59810;48.800;9.086;2023-05-23T13:21:57;97759.13;;;20.81;53.41
71938;BME280;59810;48.800;9.086;2023-05-23T13:24:24;97754.25;;;20.56;53.68
71938;BME280;59810;48.800;9.086;2023-05-23T13:26:50;97764.19;;;20.30;55.42
71938;BME280;59810;48.800;9.086;2023-05-23T13:29:15;97762.59;;;20.15;56.29
71938;BME280;59810;48.800;9.086;2023-05-23T13:31:40;97753.50;;;19.92;56.59
71938;BME280;59810;48.800;9.086;2023-05-23T13:34:06;97765.00;;;19.67;56.70